createdAt,value
2017-09-04T00:00:16.465Z,11.70
2017-09-04T00:02:44.730Z,11.60
2017-09-04T00:05:13.014Z,11.60
2017-09-04T00:07:41.295Z,11.60
2017-09-04T00:10:09.520Z,11.60
2017-09-04T00:12:37.797Z,11.60
2017-09-04T00:15:06.049Z,11.60
2017-09-04T00:17:34.302Z,11.50
2017-09-04T00:20:02.579Z,11.50
2017-09-04T00:22:30.813Z,11.50
2017-09-04T00:24:59.206Z,11.50
2017-09-04T00:27:27.462Z,11.50
2017-09-04T00:29:55.683Z,11.50
2017-09-04T00:32:23.945Z,11.50
2017-09-04T00:34:52.183Z,11.50
2017-09-04T00:37:21.015Z,11.50
2017-09-04T00:39:49.252Z,11.60
2017-09-04T00:42:17.520Z,11.50
2017-09-04T00:44:45.756Z,11.50
2017-09-04T00:47:14.009Z,11.50
2017-09-04T00:49:42.259Z,11.40
2017-09-04T00:52:10.535Z,11.40
2017-09-04T00:54:38.790Z,11.40
2017-09-04T00:57:07.038Z,11.40
2017-09-04T00:59:35.303Z,11.50
2017-09-04T01:02:03.534Z,11.40
2017-09-04T01:04:31.806Z,11.40
2017-09-04T01:07:00.091Z,11.40
2017-09-04T01:09:28.353Z,11.40
2017-09-04T01:11:56.590Z,11.40
2017-09-04T01:14:24.860Z,11.40
2017-09-04T01:16:53.103Z,11.30
2017-09-04T01:19:21.361Z,11.40
2017-09-04T01:21:49.645Z,11.40
2017-09-04T01:24:17.898Z,11.30
2017-09-04T01:26:46.178Z,11.40
2017-09-04T01:29:14.470Z,11.30
2017-09-04T01:31:42.715Z,11.30
2017-09-04T01:34:10.968Z,11.30
2017-09-04T01:36:39.224Z,11.30
2017-09-04T01:39:07.475Z,11.30
2017-09-04T01:41:35.717Z,11.20
2017-09-04T01:44:03.961Z,11.30
2017-09-04T01:46:32.214Z,11.20
2017-09-04T01:49:00.467Z,11.10
2017-09-04T01:51:28.723Z,11.20
2017-09-04T01:53:56.957Z,11.20
2017-09-04T01:56:25.221Z,11.20
2017-09-04T01:58:53.471Z,11.10
2017-09-04T02:01:21.702Z,11.10
2017-09-04T02:03:49.995Z,11.00
2017-09-04T02:06:18.263Z,11.00
2017-09-04T02:08:46.538Z,11.00
2017-09-04T02:11:14.763Z,11.00
2017-09-04T02:13:43.034Z,11.00
2017-09-04T02:16:11.279Z,11.00
2017-09-04T02:18:39.511Z,10.90
2017-09-04T02:21:07.764Z,11.00
2017-09-04T02:23:35.998Z,11.00
2017-09-04T02:26:04.234Z,11.00
2017-09-04T02:28:32.518Z,11.00
2017-09-04T02:31:00.795Z,11.00
2017-09-04T02:33:29.014Z,11.00
2017-09-04T02:35:57.291Z,11.00
2017-09-04T02:38:25.548Z,11.00
2017-09-04T02:40:53.793Z,11.00
2017-09-04T02:43:22.133Z,11.00
2017-09-04T02:45:50.358Z,10.90
2017-09-04T02:48:18.631Z,10.90
2017-09-04T02:50:46.853Z,10.90
2017-09-04T02:53:15.154Z,10.90
2017-09-04T02:55:43.410Z,10.80
2017-09-04T02:58:11.635Z,10.80
2017-09-04T03:00:39.906Z,10.80
2017-09-04T03:03:08.166Z,10.70
2017-09-04T03:05:36.411Z,10.80
2017-09-04T03:08:04.646Z,10.70
2017-09-04T03:10:33.672Z,10.70
2017-09-04T03:13:01.955Z,10.70
2017-09-04T03:15:30.185Z,10.60
2017-09-04T03:17:58.453Z,10.50
2017-09-04T03:20:26.694Z,10.60
2017-09-04T03:22:54.935Z,10.50
2017-09-04T03:25:23.171Z,10.50
2017-09-04T03:27:51.438Z,10.50
2017-09-04T03:30:19.726Z,10.40
2017-09-04T03:32:48.009Z,10.40
2017-09-04T03:35:16.266Z,10.40
2017-09-04T03:37:44.535Z,10.30
2017-09-04T03:40:12.773Z,10.20
2017-09-04T03:42:41.023Z,10.30
2017-09-04T03:45:09.343Z,10.20
2017-09-04T03:47:37.574Z,10.20
2017-09-04T03:50:05.864Z,10.20
2017-09-04T03:52:34.129Z,10.20
2017-09-04T03:55:02.419Z,10.20
2017-09-04T03:57:30.686Z,10.10
2017-09-04T03:59:58.970Z,10.20
2017-09-04T04:02:27.244Z,10.10
2017-09-04T04:04:55.506Z,10.10
2017-09-04T04:07:23.786Z,10.10
2017-09-04T04:09:52.145Z,10.00
2017-09-04T04:12:20.467Z,10.00
2017-09-04T04:14:48.698Z,10.00
2017-09-04T04:17:17.026Z,10.00
2017-09-04T04:19:45.275Z,10.00
2017-09-04T04:22:13.584Z,9.90
2017-09-04T04:24:41.932Z,9.90
2017-09-04T04:27:10.201Z,9.90
2017-09-04T04:29:38.514Z,9.90
2017-09-04T04:32:06.764Z,9.90
2017-09-04T04:34:35.043Z,9.90
2017-09-04T04:37:03.350Z,9.90
2017-09-04T04:39:31.587Z,9.90
2017-09-04T04:41:59.865Z,9.80
2017-09-04T04:44:28.093Z,9.80
2017-09-04T04:46:56.374Z,9.80
2017-09-04T04:49:24.653Z,9.80
2017-09-04T04:51:52.908Z,9.80
2017-09-04T04:54:21.146Z,9.80
2017-09-04T04:56:49.405Z,9.80
2017-09-04T04:59:17.646Z,9.80
2017-09-04T05:01:45.887Z,9.90
2017-09-04T05:04:14.145Z,9.90
2017-09-04T05:06:42.697Z,9.90
2017-09-04T05:09:10.915Z,9.90
2017-09-04T05:11:39.177Z,9.90
2017-09-04T05:14:07.418Z,9.90
2017-09-04T05:16:35.673Z,9.90
2017-09-04T05:19:03.917Z,9.90
2017-09-04T05:21:32.166Z,10.00
2017-09-04T05:24:00.434Z,10.00
2017-09-04T05:26:28.674Z,10.10
2017-09-04T05:28:56.944Z,10.10
2017-09-04T05:31:25.249Z,10.20
2017-09-04T05:33:53.584Z,10.20
2017-09-04T05:36:21.839Z,10.30
2017-09-04T05:38:50.103Z,10.30
2017-09-04T05:41:18.342Z,10.40
2017-09-04T05:43:46.613Z,10.40
2017-09-04T05:46:14.873Z,10.40
2017-09-04T05:48:43.135Z,10.50
2017-09-04T05:51:11.361Z,10.50
2017-09-04T05:53:39.700Z,10.60
2017-09-04T05:56:07.918Z,10.60
2017-09-04T05:58:36.150Z,10.60
2017-09-04T06:01:04.402Z,10.60
2017-09-04T06:03:32.799Z,10.60
2017-09-04T06:06:01.014Z,10.60
2017-09-04T06:08:29.279Z,10.60
2017-09-04T06:10:57.559Z,10.60
2017-09-04T06:13:25.837Z,10.70
2017-09-04T06:15:54.094Z,10.70
2017-09-04T06:18:22.363Z,10.70
2017-09-04T06:20:50.585Z,10.80
2017-09-04T06:23:18.890Z,10.90
2017-09-04T06:25:47.127Z,10.90
2017-09-04T06:28:15.384Z,10.90
2017-09-04T06:30:43.790Z,11.00
2017-09-04T06:33:12.054Z,11.10
2017-09-04T06:35:40.920Z,11.20
2017-09-04T06:38:09.167Z,11.20
2017-09-04T06:40:37.404Z,11.30
2017-09-04T06:43:06.451Z,11.60
2017-09-04T06:45:34.683Z,11.60
2017-09-04T06:48:02.979Z,11.80
2017-09-04T06:50:31.210Z,11.90
2017-09-04T06:52:59.473Z,12.20
2017-09-04T06:55:28.363Z,12.40
2017-09-04T06:57:56.613Z,12.50
2017-09-04T07:00:24.890Z,12.50
2017-09-04T07:02:53.200Z,12.60
2017-09-04T07:05:21.422Z,12.60
2017-09-04T07:07:49.663Z,12.60
2017-09-04T07:10:17.931Z,12.60
2017-09-04T07:12:46.226Z,12.70
2017-09-04T07:15:14.582Z,12.70
2017-09-04T07:17:42.791Z,12.70
2017-09-04T07:20:11.043Z,12.70
2017-09-04T07:22:39.295Z,12.70
2017-09-04T07:25:07.546Z,12.70
2017-09-04T07:27:35.813Z,12.80
2017-09-04T07:30:04.148Z,12.90
2017-09-04T07:32:32.414Z,13.00
2017-09-04T07:35:00.643Z,13.10
2017-09-04T07:37:28.902Z,13.20
2017-09-04T07:39:57.118Z,13.20
2017-09-04T07:42:35.312Z,13.30
2017-09-04T07:45:03.565Z,13.50
2017-09-04T07:47:31.858Z,13.60
2017-09-04T07:50:00.159Z,13.70
2017-09-04T07:52:28.413Z,13.80
2017-09-04T07:54:56.696Z,13.90
2017-09-04T07:57:24.919Z,14.00
2017-09-04T07:59:53.171Z,14.10
2017-09-04T08:02:21.416Z,14.10
2017-09-04T08:04:49.661Z,14.20
2017-09-04T08:07:17.902Z,14.30
2017-09-04T08:09:46.163Z,14.40
2017-09-04T08:12:14.887Z,14.60
2017-09-04T08:14:43.191Z,14.80
2017-09-04T08:17:11.450Z,15.00
2017-09-04T08:19:39.725Z,15.10
2017-09-04T08:22:07.993Z,15.30
2017-09-04T08:24:36.278Z,15.40
2017-09-04T08:27:04.514Z,15.50
2017-09-04T08:29:32.788Z,15.70
2017-09-04T08:32:01.026Z,15.80
2017-09-04T08:34:29.261Z,15.90
2017-09-04T08:36:57.540Z,16.10
2017-09-04T08:39:25.754Z,16.20
2017-09-04T08:41:54.012Z,16.30
2017-09-04T08:44:22.310Z,16.50
2017-09-04T08:46:50.527Z,16.60
2017-09-04T08:49:18.786Z,16.80
2017-09-04T08:51:47.031Z,16.90
2017-09-04T08:54:15.342Z,17.10
2017-09-04T08:56:43.635Z,17.20
2017-09-04T08:59:11.870Z,17.40
2017-09-04T09:01:40.125Z,17.50
2017-09-04T09:04:08.415Z,17.60
2017-09-04T09:06:36.659Z,17.70
2017-09-04T09:09:04.985Z,17.80
2017-09-04T09:11:33.221Z,17.90
2017-09-04T09:14:01.495Z,18.00
2017-09-04T09:16:29.774Z,18.10
2017-09-04T09:18:58.026Z,18.20
2017-09-04T09:21:26.317Z,18.30
2017-09-04T09:23:54.580Z,18.40
2017-09-04T09:26:22.865Z,18.50
2017-09-04T09:28:51.262Z,18.60
2017-09-04T09:31:19.560Z,18.60
2017-09-04T09:33:48.002Z,18.70
2017-09-04T09:36:16.257Z,18.90
2017-09-04T09:38:45.321Z,19.00
2017-09-04T09:41:15.112Z,19.10
2017-09-04T09:43:43.388Z,19.10
2017-09-04T09:46:11.800Z,19.00
2017-09-04T09:48:40.204Z,18.80
2017-09-04T09:51:08.539Z,18.80
2017-09-04T09:53:37.669Z,19.00
2017-09-04T09:56:05.927Z,18.70
2017-09-04T09:58:35.497Z,18.60
2017-09-04T10:01:03.722Z,18.80
2017-09-04T10:03:32.041Z,18.90
2017-09-04T10:06:00.282Z,19.10
2017-09-04T10:08:28.551Z,19.30
2017-09-04T10:10:56.784Z,19.40
2017-09-04T10:13:25.131Z,19.50
2017-09-04T10:15:53.427Z,19.60
2017-09-04T10:18:21.655Z,19.50
2017-09-04T10:20:49.947Z,19.40
2017-09-04T10:23:18.157Z,19.50
2017-09-04T10:25:46.446Z,19.70
2017-09-04T10:28:14.684Z,19.80
2017-09-04T10:30:42.905Z,19.80
2017-09-04T10:33:11.161Z,19.90
2017-09-04T10:35:39.406Z,20.00
2017-09-04T10:38:07.694Z,20.00
2017-09-04T10:40:35.966Z,20.20
2017-09-04T10:43:04.192Z,20.20
2017-09-04T10:45:32.474Z,20.20
2017-09-04T10:48:00.746Z,19.90
2017-09-04T10:50:29.005Z,19.80
2017-09-04T10:52:57.257Z,19.90
2017-09-04T10:55:25.525Z,20.00
2017-09-04T10:57:53.803Z,20.00
2017-09-04T11:00:22.042Z,20.10
2017-09-04T11:02:50.320Z,20.30
2017-09-04T11:05:18.546Z,20.40
2017-09-04T11:07:46.802Z,20.70
2017-09-04T11:10:15.183Z,20.80
2017-09-04T11:12:43.470Z,21.00
2017-09-04T11:15:11.743Z,20.80
2017-09-04T11:17:39.974Z,20.90
2017-09-04T11:20:08.227Z,20.90
2017-09-04T11:22:36.483Z,21.00
2017-09-04T11:25:04.736Z,21.30
2017-09-04T11:27:33.004Z,21.50
2017-09-04T11:30:01.270Z,21.60
2017-09-04T11:32:30.530Z,22.30
2017-09-04T11:34:58.770Z,22.30
2017-09-04T11:37:27.046Z,22.30
2017-09-04T11:39:55.307Z,22.40
2017-09-04T11:42:23.557Z,22.50
2017-09-04T11:44:51.810Z,22.20
2017-09-04T11:47:20.082Z,22.10
2017-09-04T11:49:48.362Z,22.00
2017-09-04T11:52:16.626Z,22.00
2017-09-04T11:54:44.862Z,21.40
2017-09-04T11:57:13.119Z,21.30
2017-09-04T11:59:41.397Z,21.10
2017-09-04T12:02:09.663Z,20.90
2017-09-04T12:04:37.886Z,20.80
2017-09-04T12:07:06.204Z,20.70
2017-09-04T12:09:34.464Z,20.80
2017-09-04T12:12:03.003Z,21.00
2017-09-04T12:14:31.252Z,21.00
2017-09-04T12:16:59.550Z,21.20
2017-09-04T12:19:27.835Z,21.40
2017-09-04T12:21:56.139Z,21.60
2017-09-04T12:24:24.382Z,21.60
2017-09-04T12:26:52.909Z,21.70
2017-09-04T12:29:21.220Z,21.90
2017-09-04T12:31:49.483Z,22.00
2017-09-04T12:34:17.829Z,22.00
2017-09-04T12:36:46.052Z,22.00
2017-09-04T12:39:14.323Z,22.00
2017-09-04T12:41:42.716Z,22.30
2017-09-04T12:44:10.985Z,22.40
2017-09-04T12:46:39.215Z,22.50
2017-09-04T12:49:07.456Z,22.50
2017-09-04T12:51:35.725Z,22.50
2017-09-04T12:54:03.969Z,22.60
2017-09-04T12:56:32.284Z,22.70
2017-09-04T12:59:00.535Z,22.60
2017-09-04T13:01:28.873Z,22.50
2017-09-04T13:03:57.095Z,22.40
2017-09-04T13:06:25.373Z,22.30
2017-09-04T13:08:53.662Z,22.20
2017-09-04T13:11:27.943Z,22.10
2017-09-04T13:14:01.924Z,22.10
2017-09-04T13:16:35.832Z,22.10
2017-09-04T13:19:09.863Z,22.10
2017-09-04T13:21:43.684Z,22.10
2017-09-04T13:24:17.567Z,22.20
2017-09-04T13:26:51.438Z,22.30
2017-09-04T13:29:25.498Z,22.50
2017-09-04T13:35:03.601Z,22.40
2017-09-04T13:37:37.611Z,22.50
2017-09-04T13:40:25.793Z,22.50
2017-09-04T13:46:06.659Z,22.60
2017-09-04T13:48:40.656Z,22.80
2017-09-04T13:51:24.769Z,22.90
2017-09-04T13:53:53.044Z,23.00
2017-09-04T13:56:28.794Z,23.00
2017-09-04T14:02:20.665Z,22.80
2017-09-04T14:04:54.459Z,22.70
2017-09-04T14:07:28.477Z,22.90
2017-09-04T14:09:58.289Z,22.50
2017-09-04T14:12:43.404Z,22.20
2017-09-04T14:18:19.576Z,21.70
2017-09-04T14:20:47.894Z,22.00
2017-09-04T14:23:16.145Z,22.30
2017-09-04T14:25:44.394Z,22.60
2017-09-04T14:28:12.704Z,22.80
2017-09-04T14:30:40.959Z,22.60
2017-09-04T14:33:09.211Z,22.30
2017-09-04T14:35:37.520Z,22.40
2017-09-04T14:38:05.829Z,22.60
2017-09-04T14:44:02.902Z,22.70
2017-09-04T14:46:36.863Z,22.90
2017-09-04T14:49:05.166Z,23.10
2017-09-04T14:51:33.438Z,23.00
2017-09-04T14:54:01.730Z,23.00
2017-09-04T14:56:29.982Z,22.60
2017-09-04T14:58:58.211Z,22.70
2017-09-04T15:01:26.485Z,22.70
2017-09-04T15:03:54.784Z,22.90
2017-09-04T15:06:23.055Z,23.00
2017-09-04T15:08:51.927Z,22.90
2017-09-04T15:11:20.203Z,22.80
2017-09-04T15:13:48.488Z,22.70
2017-09-04T15:16:16.713Z,22.60
2017-09-04T15:18:45.005Z,22.60
2017-09-04T15:21:13.270Z,22.50
2017-09-04T15:23:41.542Z,22.40
2017-09-04T15:26:10.608Z,22.50
2017-09-04T15:28:38.961Z,22.40
2017-09-04T15:31:07.341Z,22.40
2017-09-04T15:33:35.603Z,22.00
2017-09-04T15:36:03.932Z,21.90
2017-09-04T15:38:32.183Z,21.90
2017-09-04T15:41:00.529Z,21.90
2017-09-04T15:43:28.803Z,21.90
2017-09-04T15:45:57.060Z,21.80
2017-09-04T15:48:25.316Z,21.90
2017-09-04T15:50:53.587Z,21.90
2017-09-04T15:53:21.886Z,21.90
2017-09-04T15:55:50.127Z,21.90
2017-09-04T15:58:18.415Z,21.70
2017-09-04T16:00:46.706Z,21.80
2017-09-04T16:03:14.975Z,21.70
2017-09-04T16:05:43.883Z,21.80
2017-09-04T16:08:12.161Z,21.80
2017-09-04T16:10:40.473Z,21.80
2017-09-04T16:13:13.351Z,21.80
2017-09-04T16:15:48.212Z,21.70
2017-09-04T16:18:32.227Z,21.70
2017-09-04T16:21:02.139Z,21.80
2017-09-04T16:23:33.973Z,21.70
2017-09-04T16:26:13.079Z,21.50
2017-09-04T16:31:57.047Z,21.50
2017-09-04T16:34:40.166Z,21.50
2017-09-04T16:37:23.305Z,21.60
2017-09-04T16:39:51.587Z,21.60
2017-09-04T16:42:22.229Z,21.70
2017-09-04T16:45:06.295Z,21.70
2017-09-04T16:47:38.473Z,21.80
2017-09-04T16:50:11.629Z,21.90
2017-09-04T16:52:42.440Z,21.70
2017-09-04T16:55:11.063Z,21.50
2017-09-04T16:57:39.341Z,21.40
2017-09-04T17:00:07.643Z,21.40
2017-09-04T17:02:35.965Z,21.10
2017-09-04T17:05:04.182Z,21.00
2017-09-04T17:07:32.505Z,21.00
2017-09-04T17:10:00.765Z,21.00
2017-09-04T17:12:30.913Z,21.00
2017-09-04T17:15:14.990Z,21.00
2017-09-04T17:17:47.927Z,20.90
2017-09-04T17:20:18.646Z,20.70
2017-09-04T17:22:49.577Z,20.60
2017-09-04T17:25:20.558Z,20.60
2017-09-04T17:27:48.843Z,20.50
2017-09-04T17:30:17.071Z,20.40
2017-09-04T17:32:45.296Z,20.30
2017-09-04T17:35:13.583Z,20.10
2017-09-04T17:37:41.869Z,20.10
2017-09-04T17:40:10.133Z,20.00
2017-09-04T17:42:39.155Z,19.90
2017-09-04T17:45:07.446Z,19.80
2017-09-04T17:47:35.720Z,19.80
2017-09-04T17:50:03.980Z,19.60
2017-09-04T17:52:33.036Z,19.40
2017-09-04T17:55:01.290Z,19.30
2017-09-04T17:57:29.911Z,19.20
2017-09-04T17:59:58.149Z,19.00
2017-09-04T18:02:26.463Z,18.80
2017-09-04T18:04:54.733Z,18.70
2017-09-04T18:07:23.000Z,18.70
2017-09-04T18:09:51.241Z,18.60
2017-09-04T18:12:19.514Z,18.20
2017-09-04T18:14:47.819Z,18.40
2017-09-04T18:17:16.098Z,18.30
2017-09-04T18:19:44.417Z,18.10
2017-09-04T18:22:12.739Z,18.00
2017-09-04T18:24:41.025Z,17.70
2017-09-04T18:27:09.294Z,17.60
2017-09-04T18:29:37.598Z,17.50
2017-09-04T18:32:05.862Z,17.30
2017-09-04T18:34:34.134Z,17.20
2017-09-04T18:37:02.445Z,17.10
2017-09-04T18:39:30.724Z,17.00
2017-09-04T18:41:58.976Z,16.80
2017-09-04T18:44:27.299Z,16.70
2017-09-04T18:46:55.609Z,16.60
2017-09-04T18:49:23.859Z,16.60
2017-09-04T18:51:52.175Z,16.50
2017-09-04T18:54:20.457Z,16.50
2017-09-04T18:56:48.706Z,16.50
2017-09-04T18:59:17.023Z,16.50
2017-09-04T19:01:45.319Z,16.50
2017-09-04T19:04:13.638Z,16.50
2017-09-04T19:06:41.906Z,16.40
2017-09-04T19:09:10.180Z,16.20
2017-09-04T19:11:38.485Z,16.10
2017-09-04T19:14:06.824Z,15.90
2017-09-04T19:16:35.089Z,15.90
2017-09-04T19:19:03.368Z,15.70
2017-09-04T19:21:31.647Z,15.70
2017-09-04T19:23:59.911Z,15.70
2017-09-04T19:26:28.269Z,15.70
2017-09-04T19:28:56.556Z,15.70
2017-09-04T19:31:24.836Z,15.70
2017-09-04T19:33:53.138Z,15.80
2017-09-04T19:36:21.420Z,15.70
2017-09-04T19:38:49.725Z,15.60
2017-09-04T19:41:18.075Z,15.50
2017-09-04T19:43:46.308Z,15.50
2017-09-04T19:46:14.585Z,15.60
2017-09-04T19:48:42.860Z,15.50
2017-09-04T19:51:11.141Z,15.40
2017-09-04T19:53:39.453Z,15.40
2017-09-04T19:56:07.722Z,15.30
2017-09-04T19:58:36.047Z,15.20
2017-09-04T20:01:04.345Z,15.10
2017-09-04T20:03:32.712Z,15.00
2017-09-04T20:06:00.975Z,15.00
2017-09-04T20:08:29.276Z,14.80
2017-09-04T20:10:57.615Z,14.70
2017-09-04T20:13:25.884Z,14.70
2017-09-04T20:15:54.163Z,14.70
2017-09-04T20:18:22.462Z,14.60
2017-09-04T20:20:50.738Z,14.70
2017-09-04T20:23:19.031Z,14.60
2017-09-04T20:25:47.311Z,14.50
2017-09-04T20:28:15.554Z,14.50
2017-09-04T20:30:43.838Z,14.50
2017-09-04T20:33:12.219Z,14.40
2017-09-04T20:35:40.546Z,14.40
2017-09-04T20:38:08.789Z,14.30
2017-09-04T20:40:37.505Z,14.30
2017-09-04T20:43:05.794Z,14.20
2017-09-04T20:45:34.161Z,14.10
2017-09-04T20:48:02.418Z,14.00
2017-09-04T20:50:30.680Z,13.90
2017-09-04T20:52:58.954Z,13.90
2017-09-04T20:55:27.204Z,14.00
2017-09-04T20:57:55.514Z,14.00
2017-09-04T21:00:23.803Z,13.90
2017-09-04T21:02:52.094Z,13.70
2017-09-04T21:05:20.370Z,13.80
2017-09-04T21:07:48.644Z,13.80
2017-09-04T21:10:16.922Z,13.70
2017-09-04T21:12:45.985Z,13.60
2017-09-04T21:15:14.218Z,13.50
2017-09-04T21:17:42.498Z,13.40
2017-09-04T21:20:10.738Z,13.40
2017-09-04T21:22:39.018Z,13.40
2017-09-04T21:25:07.303Z,13.40
2017-09-04T21:27:35.539Z,13.40
2017-09-04T21:30:03.853Z,13.50
2017-09-04T21:32:32.137Z,13.50
2017-09-04T21:35:00.433Z,13.60
2017-09-04T21:37:28.718Z,13.70
2017-09-04T21:39:57.026Z,13.70
2017-09-04T21:42:25.314Z,13.60
2017-09-04T21:44:53.562Z,13.50
2017-09-04T21:47:21.816Z,13.30
2017-09-04T21:49:50.054Z,13.30
2017-09-04T21:52:18.340Z,13.20
2017-09-04T21:54:46.593Z,13.20
2017-09-04T21:57:14.844Z,13.10
2017-09-04T21:59:43.098Z,13.10
2017-09-04T22:02:11.339Z,13.00
2017-09-04T22:04:39.602Z,13.10
2017-09-04T22:07:07.883Z,13.10
2017-09-04T22:09:36.129Z,13.10
2017-09-04T22:12:04.428Z,13.00
2017-09-04T22:14:32.703Z,13.00
2017-09-04T22:17:01.080Z,13.00
2017-09-04T22:19:29.300Z,12.90
2017-09-04T22:21:57.577Z,13.00
2017-09-04T22:24:25.825Z,13.00
2017-09-04T22:26:54.094Z,13.20
2017-09-04T22:29:22.351Z,13.20
2017-09-04T22:31:50.622Z,13.20
2017-09-04T22:34:18.903Z,13.30
2017-09-04T22:36:47.150Z,13.30
2017-09-04T22:39:15.406Z,13.30
2017-09-04T22:41:43.672Z,13.30
2017-09-04T22:44:11.909Z,13.40
2017-09-04T22:46:40.175Z,13.50
2017-09-04T22:49:08.433Z,13.40
2017-09-04T22:51:36.703Z,13.40
2017-09-04T22:54:04.942Z,13.30
2017-09-04T22:56:33.225Z,13.40
2017-09-04T22:59:02.411Z,13.50
2017-09-04T23:01:30.815Z,13.50
2017-09-04T23:03:59.101Z,13.50
2017-09-04T23:06:27.941Z,13.40
2017-09-04T23:08:56.195Z,13.40
2017-09-04T23:11:24.426Z,13.40
2017-09-04T23:13:52.685Z,13.50
2017-09-04T23:16:20.951Z,13.60
2017-09-04T23:18:49.212Z,13.60
2017-09-04T23:21:17.494Z,13.50
2017-09-04T23:23:45.776Z,13.50
2017-09-04T23:26:14.004Z,13.60
2017-09-04T23:28:42.318Z,13.70
2017-09-04T23:31:10.557Z,13.70
2017-09-04T23:33:38.809Z,13.70
2017-09-04T23:36:07.050Z,13.60
2017-09-04T23:38:35.298Z,13.60
2017-09-04T23:41:03.530Z,13.60
2017-09-04T23:43:31.809Z,13.60
2017-09-04T23:46:00.059Z,13.60
2017-09-04T23:48:28.346Z,13.60
2017-09-04T23:50:56.594Z,13.60
2017-09-04T23:53:24.834Z,13.70
2017-09-04T23:55:53.118Z,13.80
2017-09-04T23:58:21.350Z,13.80
